Lubbock, TX

1:04 PM CDT on September 18, 2014 (GMT -0500)
Hale County | Change Station
CLOSE
Current Station
Airport
Location: Plainview,
Elevation: 3373 ft
Nearby Weather Stations

Elev 3373 ft 34.17 °N, 101.72 °W | Updated 9 minutes ago

Overcast
Overcast
65 °F
Feels Like 65 °F
N
13
Wind Variable Wind from SE

Today
High -- | Low -- °F
--% Chance of Precip.
Yesterday
High -- | Low -- °F
Precip. -- in
7:32 AM 7:49 PM
Waning Crescent, 25% visible
Pressure 30.03 in
Visibility 10.0 miles
Clouds Scattered Clouds 1900 ft
Mostly Cloudy 2700 ft
Overcast 3600 ft
Dew Point 63 °F
Humidity 95%
Rainfall 0.00 in
Snow Depth Not available.
UV 3 out of 12
Pollen 4.80 out of 12
Air Quality Not available.
Flu Activity Not available.
METAR KPVW 181755Z AUTO 13011KT 10SM -RA SCT019 BKN027 OVC036 18/17 A3003 RMK AO2 T01820174 10183 20170

More Conditions Fewer Conditions

Pressure 30.03 in
Visibility 10.0 miles
Clouds Scattered Clouds 1900 ft
Mostly Cloudy 2700 ft
Overcast 3600 ft
Dew Point 63 °F
Humidity 95%
Rainfall 0.00 in
Snow Depth Not available.
UV 3 out of 12
Pollen 4.80 out of 12
Air Quality Not available.
Flu Activity Not available.
METAR KPVW 181755Z AUTO 13011KT 10SM -RA SCT019 BKN027 OVC036 18/17 A3003 RMK AO2 T01820174 10183 20170

More Conditions Fewer Conditions

Nowcast | as of 12:22 PM CDT on September 18, 2014

Through 130 PM...widespread rain showers will continue to move eastward across the South Plains...southern Texas Panhandle...and the rolling plains. Rainfall rates will generally be light up to one tenth of an inch per hour except in heavier showers where rainfall rates over three quarters of an inch per hour will be possible. While rainfall will be light ponding of water in low lying areas will be possible. Caution should be used when commuting.

×

10-Day Weather Forecast

Almanac

Astronomy

Sep. 18, 2014 Rise Set
Actual Time 7:32 AM CDT 7:49 PM CDT
Civil Twilight 7:07 AM CDT 8:14 PM CDT
Nautical Twilight 6:38 AM CDT 8:43 PM CDT
Astronomical Twilight 6:09 AM CDT 9:12 PM CDT
Moon 2:37 AM CDT 4:31 PM CDT
Length of Visible Light 13h 06m
Length of Day
12h 16m
Tomorrow will be 2m 3s shorter.
Waning Crescent, 25% of the Moon is Illuminated
Today
Waning Crescent
Sep 24
New
Oct 1
First Quarter
Oct 8
Full
Oct 15
Last Quarter

Today's Extremes

State Highs State Lows

Community

WunderPhotos

Upload Photos

1,754,410 photos uploaded!

Nearby

Air Quality

  Air Quality AQ Index Pollutant
Thursday Good
PM10
Thursday Good
OZONE
Friday Good
PM10
Friday Good
OZONE
Saturday Good
PM10
Saturday Good
OZONE
Sunday Good
PM10
Sunday Good
OZONE

Snow Depth

Station Depth Elevation
No new snow has been reported.

Earthquake Activity

City Distance Mag. Time & Date
No recent earthquake activity has been reported nearby.
Minimum magnitude displayed is 2.5.

Coastal Water Temperatures

Place Temperature
No Stations Reporting

Nearby Weather Stations